createdAt,value
2023-04-24T00:01:55.137Z,83.30
2023-04-24T00:04:23.101Z,83.60
2023-04-24T00:06:55.013Z,83.60
2023-04-24T00:09:22.765Z,83.40
2023-04-24T00:11:50.422Z,84.60
2023-04-24T00:14:18.035Z,84.40
2023-04-24T00:16:46.132Z,83.80
2023-04-24T00:19:14.108Z,85.00
2023-04-24T00:21:42.769Z,84.70
2023-04-24T00:24:10.887Z,83.70
2023-04-24T00:26:38.472Z,85.60
2023-04-24T00:29:06.180Z,85.30
2023-04-24T00:31:35.974Z,84.70
2023-04-24T00:34:04.832Z,85.60
2023-04-24T00:36:33.108Z,85.70
2023-04-24T00:39:00.709Z,84.40
2023-04-24T00:41:28.500Z,86.20
2023-04-24T00:43:56.900Z,86.20
2023-04-24T00:46:24.739Z,86.30
2023-04-24T00:48:52.706Z,86.10
2023-04-24T00:51:20.713Z,85.60
2023-04-24T00:53:48.310Z,85.80
2023-04-24T00:56:16.298Z,85.70
2023-04-24T00:58:45.385Z,86.50
2023-04-24T01:01:13.282Z,87.70
2023-04-24T01:03:42.117Z,89.20
2023-04-24T01:06:11.600Z,87.90
2023-04-24T01:08:41.145Z,88.30
2023-04-24T01:11:08.791Z,89.70
2023-04-24T01:13:36.366Z,90.00
2023-04-24T01:16:04.600Z,90.70
2023-04-24T01:18:32.247Z,88.90
2023-04-24T01:21:02.909Z,90.40
2023-04-24T01:23:32.370Z,90.20
2023-04-24T01:26:00.480Z,90.20
2023-04-24T01:28:28.209Z,90.10
2023-04-24T01:30:56.092Z,91.40
2023-04-24T01:33:24.788Z,91.00
2023-04-24T01:35:52.815Z,91.80
2023-04-24T01:38:20.477Z,93.40
2023-04-24T01:40:48.671Z,93.30
2023-04-24T01:43:16.734Z,95.00
2023-04-24T01:45:45.763Z,94.10
2023-04-24T01:48:14.534Z,96.20
2023-04-24T01:50:42.267Z,97.50
2023-04-24T01:53:13.300Z,97.20
2023-04-24T01:55:42.219Z,97.90
2023-04-24T01:58:09.878Z,97.30
2023-04-24T02:00:37.738Z,98.10
2023-04-24T02:03:05.552Z,98.70
2023-04-24T02:05:33.295Z,99.40
2023-04-24T02:08:00.994Z,99.90
2023-04-24T02:10:28.728Z,99.90
2023-04-24T02:12:56.496Z,99.90
2023-04-24T02:15:25.695Z,99.90
2023-04-24T02:17:53.351Z,99.90
2023-04-24T02:20:20.949Z,99.90
2023-04-24T02:22:48.592Z,99.90
2023-04-24T02:25:16.460Z,99.90
2023-04-24T02:27:43.981Z,99.90
2023-04-24T02:30:11.880Z,99.90
2023-04-24T02:32:40.184Z,99.90
2023-04-24T02:35:08.256Z,99.90
2023-04-24T02:37:36.068Z,99.90
2023-04-24T02:40:03.881Z,99.90
2023-04-24T02:42:31.542Z,99.90
2023-04-24T02:44:59.670Z,99.90
2023-04-24T02:47:27.522Z,99.90
2023-04-24T02:49:55.140Z,99.90
2023-04-24T02:52:22.767Z,99.90
2023-04-24T02:54:50.536Z,99.90
2023-04-24T02:57:18.232Z,99.90
2023-04-24T02:59:45.774Z,99.90
2023-04-24T03:02:13.406Z,99.90
2023-04-24T03:04:41.317Z,99.90
2023-04-24T03:07:09.050Z,99.90
2023-04-24T03:09:38.546Z,99.90
2023-04-24T03:12:06.139Z,99.90
2023-04-24T03:14:33.979Z,99.90
2023-04-24T03:17:01.616Z,99.90
2023-04-24T03:19:29.250Z,99.90
2023-04-24T03:22:05.551Z,99.90
2023-04-24T03:24:34.386Z,99.90
2023-04-24T03:27:02.008Z,99.90
2023-04-24T03:29:52.658Z,99.90
2023-04-24T03:32:20.906Z,99.90
2023-04-24T03:34:50.108Z,99.90
2023-04-24T03:37:18.087Z,99.90
2023-04-24T03:39:53.798Z,99.90
2023-04-24T03:42:25.338Z,99.90
2023-04-24T03:44:56.805Z,99.90
2023-04-24T03:47:29.250Z,99.90
2023-04-24T03:50:01.028Z,99.90
2023-04-24T03:52:29.274Z,99.90
2023-04-24T03:54:57.293Z,99.90
2023-04-24T03:57:26.096Z,99.90
2023-04-24T04:00:07.998Z,99.90
2023-04-24T04:02:42.769Z,99.90
2023-04-24T04:05:12.532Z,99.90
2023-04-24T04:07:40.642Z,99.90
2023-04-24T04:10:08.924Z,99.90
2023-04-24T04:12:38.430Z,99.90
2023-04-24T04:15:07.933Z,99.90
2023-04-24T04:17:35.962Z,99.90
2023-04-24T04:20:10.401Z,99.90
2023-04-24T04:22:39.012Z,99.90
2023-04-24T04:25:10.041Z,99.90
2023-04-24T04:27:37.806Z,99.90
2023-04-24T04:30:11.398Z,99.90
2023-04-24T04:32:48.236Z,99.90
2023-04-24T04:35:16.545Z,99.90
2023-04-24T04:37:44.222Z,99.90
2023-04-24T04:40:27.953Z,99.90
2023-04-24T04:43:00.866Z,99.90
2023-04-24T04:45:33.823Z,99.90
2023-04-24T04:48:32.622Z,99.90
2023-04-24T04:51:02.426Z,99.90
2023-04-24T04:53:30.620Z,99.90
2023-04-24T04:55:58.863Z,99.90
2023-04-24T04:58:36.458Z,99.90
2023-04-24T05:01:06.179Z,99.90
2023-04-24T05:03:39.074Z,99.90
2023-04-24T05:06:11.106Z,99.90
2023-04-24T05:08:40.815Z,99.90
2023-04-24T05:11:12.652Z,99.90
2023-04-24T05:13:42.820Z,99.90
2023-04-24T05:16:15.541Z,99.90
2023-04-24T05:18:43.458Z,99.90
2023-04-24T05:21:14.848Z,99.90
2023-04-24T05:23:45.533Z,99.90
2023-04-24T05:26:16.748Z,99.90
2023-04-24T05:28:44.315Z,99.90
2023-04-24T05:31:13.718Z,99.90
2023-04-24T05:33:41.549Z,99.90
2023-04-24T05:36:09.221Z,99.90
2023-04-24T05:38:37.402Z,99.90
2023-04-24T05:41:05.819Z,99.90
2023-04-24T05:43:33.456Z,99.90
2023-04-24T05:46:01.380Z,99.90
2023-04-24T05:48:29.044Z,97.70
2023-04-24T05:50:56.591Z,96.80
2023-04-24T05:53:25.297Z,97.40
2023-04-24T05:55:53.160Z,97.80
2023-04-24T05:58:21.445Z,97.30
2023-04-24T06:00:49.250Z,95.00
2023-04-24T06:03:17.292Z,97.20
2023-04-24T06:05:45.145Z,96.40
2023-04-24T06:08:12.899Z,99.20
2023-04-24T06:10:43.739Z,96.60
2023-04-24T06:13:13.429Z,95.40
2023-04-24T06:15:47.866Z,96.10
2023-04-24T06:18:21.819Z,97.20
2023-04-24T06:20:50.767Z,98.10
2023-04-24T06:23:18.331Z,98.00
2023-04-24T06:25:45.927Z,95.60
2023-04-24T06:28:14.041Z,95.50
2023-04-24T06:30:42.188Z,94.80
2023-04-24T06:33:20.086Z,98.30
2023-04-24T06:35:49.512Z,99.60
2023-04-24T06:38:17.577Z,99.90
2023-04-24T06:40:45.291Z,99.90
2023-04-24T06:43:13.001Z,99.90
2023-04-24T06:45:41.017Z,99.90
2023-04-24T06:48:08.891Z,99.90
2023-04-24T06:50:36.581Z,99.90
2023-04-24T06:53:04.210Z,99.90
2023-04-24T06:55:32.112Z,99.90
2023-04-24T06:58:00.168Z,99.90
2023-04-24T07:00:27.915Z,99.90
2023-04-24T07:02:55.661Z,99.90
2023-04-24T07:05:24.428Z,99.90
2023-04-24T07:07:52.367Z,99.90
2023-04-24T07:10:21.215Z,99.90
2023-04-24T07:12:48.888Z,99.90
2023-04-24T07:15:17.334Z,99.90
2023-04-24T07:17:45.451Z,98.40
2023-04-24T07:20:13.437Z,96.80
2023-04-24T07:22:41.870Z,97.50
2023-04-24T07:25:10.138Z,96.30
2023-04-24T07:27:37.830Z,98.80
2023-04-24T07:30:06.184Z,95.70
2023-04-24T07:32:34.025Z,97.20
2023-04-24T07:35:01.800Z,97.40
2023-04-24T07:37:30.053Z,96.90
2023-04-24T07:39:58.087Z,95.90
2023-04-24T07:42:25.693Z,94.40
2023-04-24T07:44:53.341Z,94.70
2023-04-24T07:47:21.196Z,94.30
2023-04-24T07:49:48.985Z,95.10
2023-04-24T07:52:16.674Z,94.60
2023-04-24T07:54:44.567Z,95.50
2023-04-24T07:57:12.445Z,94.90
2023-04-24T07:59:40.343Z,95.00
2023-04-24T08:02:08.156Z,95.70
2023-04-24T08:04:36.082Z,94.70
2023-04-24T08:07:03.899Z,94.80
2023-04-24T08:09:31.510Z,95.50
2023-04-24T08:11:59.146Z,93.90
2023-04-24T08:14:27.103Z,93.90
2023-04-24T08:16:57.824Z,94.10
2023-04-24T08:19:26.587Z,95.40
2023-04-24T08:21:54.206Z,95.90
2023-04-24T08:24:22.055Z,91.80
2023-04-24T08:26:53.244Z,91.30
2023-04-24T08:29:21.142Z,92.70
2023-04-24T08:31:48.761Z,92.50
2023-04-24T08:34:16.608Z,92.10
2023-04-24T08:36:47.415Z,92.70
2023-04-24T08:39:15.955Z,91.60
2023-04-24T08:41:44.475Z,91.90
2023-04-24T08:44:14.047Z,91.20
2023-04-24T08:46:42.114Z,91.30
2023-04-24T08:49:09.948Z,90.50
2023-04-24T08:51:39.030Z,90.60
2023-04-24T08:54:08.337Z,89.10
2023-04-24T08:56:40.332Z,91.10
2023-04-24T08:59:08.378Z,88.20
2023-04-24T09:01:38.561Z,88.70
2023-04-24T09:04:10.969Z,87.80
2023-04-24T09:06:38.782Z,89.00
2023-04-24T09:09:06.884Z,89.70
2023-04-24T09:11:34.548Z,90.00
2023-04-24T09:14:02.888Z,87.10
2023-04-24T09:16:30.962Z,88.70
2023-04-24T09:18:58.615Z,87.20
2023-04-24T09:21:34.050Z,89.20
2023-04-24T09:24:03.666Z,89.70
2023-04-24T09:26:33.130Z,89.20
2023-04-24T09:29:01.123Z,90.00
2023-04-24T09:31:30.768Z,90.30
2023-04-24T09:34:08.387Z,89.50
2023-04-24T09:36:42.255Z,88.30
2023-04-24T09:39:16.756Z,90.30
2023-04-24T09:41:52.170Z,90.40
2023-04-24T09:44:23.761Z,90.50
2023-04-24T09:47:01.739Z,89.40
2023-04-24T09:49:31.633Z,91.00
2023-04-24T09:52:07.841Z,91.30
2023-04-24T09:54:37.852Z,90.90
2023-04-24T09:57:08.527Z,90.10
2023-04-24T09:59:40.391Z,89.90
2023-04-24T10:02:19.594Z,89.70
2023-04-24T10:04:58.221Z,90.00
2023-04-24T10:07:28.842Z,90.20
2023-04-24T10:09:56.741Z,90.10
2023-04-24T10:12:26.035Z,90.10
2023-04-24T10:14:54.363Z,90.30
2023-04-24T10:17:23.033Z,90.10
2023-04-24T10:19:50.728Z,90.00
2023-04-24T10:22:19.184Z,89.30
2023-04-24T10:24:48.563Z,89.40
2023-04-24T10:27:16.752Z,88.00
2023-04-24T10:29:46.688Z,88.20
2023-04-24T10:32:14.341Z,89.50
2023-04-24T10:34:41.966Z,88.80
2023-04-24T10:37:09.604Z,89.10
2023-04-24T10:39:38.675Z,87.90
2023-04-24T10:42:16.827Z,86.90
2023-04-24T10:44:44.594Z,87.50
2023-04-24T10:47:15.630Z,88.10
2023-04-24T10:49:44.328Z,90.10
2023-04-24T10:52:13.112Z,88.90
2023-04-24T10:54:48.409Z,89.80
2023-04-24T10:57:22.726Z,89.30
2023-04-24T10:59:53.165Z,89.60
2023-04-24T11:02:37.933Z,90.70
2023-04-24T11:05:06.481Z,90.80
2023-04-24T11:08:15.636Z,90.20
2023-04-24T11:10:48.110Z,90.20
2023-04-24T11:13:17.603Z,89.00
2023-04-24T11:15:45.343Z,88.70
2023-04-24T11:18:17.012Z,88.00
2023-04-24T11:20:47.969Z,88.50
2023-04-24T11:23:15.610Z,89.40
2023-04-24T11:25:43.890Z,89.80
2023-04-24T11:28:17.237Z,90.00
2023-04-24T11:30:44.945Z,90.40
2023-04-24T11:33:13.048Z,90.70
2023-04-24T11:35:41.699Z,90.20
2023-04-24T11:40:41.777Z,89.40
2023-04-24T11:43:10.335Z,90.20
2023-04-24T11:45:37.967Z,90.50
2023-04-24T11:48:05.792Z,89.90
2023-04-24T11:50:33.408Z,89.90
2023-04-24T11:53:01.534Z,90.20
2023-04-24T11:55:30.406Z,90.50
2023-04-24T11:58:00.644Z,90.30
2023-04-24T12:00:30.466Z,89.70
2023-04-24T12:03:07.703Z,90.00
2023-04-24T12:05:36.400Z,88.90
2023-04-24T12:08:04.494Z,90.50
2023-04-24T12:10:33.822Z,90.20
2023-04-24T12:13:01.690Z,90.20
2023-04-24T12:15:29.785Z,90.60
2023-04-24T12:17:58.136Z,90.90
2023-04-24T12:20:33.631Z,90.70
2023-04-24T12:23:02.172Z,91.40
2023-04-24T12:25:31.974Z,92.00
2023-04-24T12:28:06.241Z,92.70
2023-04-24T12:30:36.570Z,93.40
2023-04-24T12:33:04.784Z,94.00
2023-04-24T12:35:34.962Z,94.60
2023-04-24T12:38:10.060Z,95.50
2023-04-24T12:40:37.749Z,95.10
2023-04-24T12:43:15.751Z,96.20
2023-04-24T12:45:43.457Z,96.60
2023-04-24T12:48:11.033Z,96.00
2023-04-24T12:50:39.792Z,96.90
2023-04-24T12:53:09.751Z,97.00
2023-04-24T12:55:38.103Z,96.80
2023-04-24T12:58:05.700Z,97.10
2023-04-24T13:00:34.017Z,97.50
2023-04-24T13:03:02.488Z,97.60
2023-04-24T13:05:30.264Z,97.90
2023-04-24T13:07:59.359Z,98.10
2023-04-24T13:10:27.022Z,98.30
2023-04-24T13:12:54.605Z,98.60
2023-04-24T13:15:22.306Z,99.10
2023-04-24T13:17:50.429Z,99.90
2023-04-24T13:20:18.726Z,99.90
2023-04-24T13:22:46.367Z,99.90
2023-04-24T13:25:14.015Z,99.90
2023-04-24T13:27:41.651Z,99.90
2023-04-24T13:30:09.984Z,99.90
2023-04-24T13:32:37.752Z,99.90
2023-04-24T13:35:05.687Z,99.90
2023-04-24T13:37:33.780Z,99.90
2023-04-24T13:40:01.408Z,99.90
2023-04-24T13:42:29.319Z,99.90
2023-04-24T13:44:57.211Z,99.90
2023-04-24T13:47:24.789Z,99.90
2023-04-24T13:49:52.769Z,99.90
2023-04-24T13:52:20.803Z,99.90
2023-04-24T13:54:49.469Z,99.90
2023-04-24T13:57:17.796Z,99.90
2023-04-24T13:59:46.202Z,99.90
2023-04-24T14:02:13.786Z,99.90
2023-04-24T14:04:42.103Z,99.90
2023-04-24T14:07:09.947Z,99.90
2023-04-24T14:09:37.589Z,99.90
2023-04-24T14:12:05.227Z,99.90
2023-04-24T14:14:32.947Z,99.90
2023-04-24T14:17:00.706Z,99.90
2023-04-24T14:19:28.305Z,99.90
2023-04-24T14:21:58.349Z,99.90
2023-04-24T14:24:26.522Z,99.90
2023-04-24T14:26:54.060Z,99.90
2023-04-24T14:29:21.624Z,99.90
2023-04-24T14:31:49.288Z,99.90
2023-04-24T14:34:17.343Z,99.90
2023-04-24T14:36:45.363Z,99.90
2023-04-24T14:39:13.273Z,99.90
2023-04-24T14:41:41.610Z,99.90
2023-04-24T14:44:09.238Z,99.90
2023-04-24T14:46:37.024Z,99.90
2023-04-24T14:49:04.991Z,99.90
2023-04-24T14:51:32.902Z,99.90
2023-04-24T14:54:00.725Z,99.90
2023-04-24T14:56:28.817Z,99.90
2023-04-24T14:58:57.050Z,99.90
2023-04-24T15:01:25.311Z,99.90
2023-04-24T15:03:53.587Z,99.90
2023-04-24T15:06:21.646Z,99.90
2023-04-24T15:08:50.608Z,99.90
2023-04-24T15:11:19.192Z,99.90
2023-04-24T15:13:47.496Z,99.90
2023-04-24T15:16:15.646Z,99.90
2023-04-24T15:18:43.376Z,99.90
2023-04-24T15:21:11.232Z,99.90
2023-04-24T15:23:38.835Z,99.90
2023-04-24T15:26:06.762Z,99.90
2023-04-24T15:28:34.421Z,99.90
2023-04-24T15:31:02.109Z,99.90
2023-04-24T15:33:29.608Z,99.90
2023-04-24T15:35:57.611Z,99.90
2023-04-24T15:38:25.317Z,99.90
2023-04-24T15:40:53.471Z,99.90
2023-04-24T15:43:21.494Z,99.90
2023-04-24T15:45:51.408Z,99.90
2023-04-24T15:48:19.854Z,99.90
2023-04-24T15:50:47.834Z,99.90
2023-04-24T15:53:22.470Z,99.90
2023-04-24T15:55:51.646Z,99.90
2023-04-24T15:58:21.660Z,99.90
2023-04-24T16:00:50.457Z,99.90
2023-04-24T16:03:18.346Z,99.90
2023-04-24T16:05:46.630Z,99.90
2023-04-24T16:08:15.681Z,99.90
2023-04-24T16:10:44.278Z,99.90
2023-04-24T16:13:12.271Z,99.90
2023-04-24T16:15:40.616Z,99.90
2023-04-24T16:18:08.597Z,99.90
2023-04-24T16:20:36.468Z,99.90
2023-04-24T16:23:04.234Z,99.90
2023-04-24T16:25:32.422Z,99.90
2023-04-24T16:28:00.304Z,99.90
2023-04-24T16:30:28.140Z,99.90
2023-04-24T16:32:55.855Z,99.90
2023-04-24T16:35:23.697Z,99.90
2023-04-24T16:37:51.506Z,99.90
2023-04-24T16:40:21.125Z,99.90
2023-04-24T16:42:49.130Z,99.90
2023-04-24T16:45:16.763Z,99.90
2023-04-24T16:47:44.604Z,99.90
2023-04-24T16:50:12.728Z,99.90
2023-04-24T16:52:40.714Z,99.90
2023-04-24T16:55:09.731Z,99.90
2023-04-24T16:57:38.209Z,99.90
2023-04-24T17:00:06.863Z,99.90
2023-04-24T17:02:34.590Z,99.90
2023-04-24T17:05:02.791Z,99.90
2023-04-24T17:07:32.476Z,99.90
2023-04-24T17:10:01.263Z,99.90
2023-04-24T17:12:29.793Z,99.90
2023-04-24T17:14:57.853Z,99.90
2023-04-24T17:17:26.484Z,99.90
2023-04-24T17:19:55.086Z,99.90
2023-04-24T17:22:23.228Z,99.90
2023-04-24T17:24:51.438Z,99.90
2023-04-24T17:27:19.552Z,99.90
2023-04-24T17:29:49.846Z,99.90
2023-04-24T17:32:19.215Z,99.90
2023-04-24T17:34:47.967Z,99.90
2023-04-24T17:37:20.058Z,99.90
2023-04-24T17:39:48.717Z,99.90
2023-04-24T17:42:17.801Z,99.90
2023-04-24T17:44:46.381Z,99.90
2023-04-24T17:47:16.290Z,99.90
2023-04-24T17:49:44.702Z,99.90
2023-04-24T17:52:13.533Z,99.90
2023-04-24T17:54:42.220Z,99.90
2023-04-24T17:57:17.502Z,99.90
2023-04-24T17:59:45.588Z,99.90
2023-04-24T18:02:13.983Z,99.90
2023-04-24T18:04:43.782Z,99.90
2023-04-24T18:07:12.358Z,99.90
2023-04-24T18:09:40.165Z,99.90
2023-04-24T18:12:09.861Z,99.90
2023-04-24T18:14:39.149Z,99.90
2023-04-24T18:17:10.452Z,99.90
2023-04-24T18:19:38.859Z,99.90
2023-04-24T18:22:07.353Z,99.90
2023-04-24T18:24:35.919Z,99.90
2023-04-24T18:27:04.785Z,99.90
2023-04-24T18:29:32.887Z,99.90
2023-04-24T18:32:06.139Z,99.90
2023-04-24T18:34:36.508Z,99.90
2023-04-24T18:37:04.810Z,99.90
2023-04-24T18:39:33.015Z,99.90
2023-04-24T18:42:02.007Z,99.90
2023-04-24T18:44:30.189Z,99.90
2023-04-24T18:46:58.827Z,99.90
2023-04-24T18:49:27.742Z,99.90
2023-04-24T18:51:57.471Z,99.90
2023-04-24T18:54:27.358Z,99.90
2023-04-24T18:56:55.851Z,99.90
2023-04-24T18:59:25.091Z,99.90
2023-04-24T19:01:53.216Z,99.90
2023-04-24T19:04:23.722Z,99.90
2023-04-24T19:06:52.259Z,99.90
2023-04-24T19:09:20.392Z,99.90
2023-04-24T19:11:49.358Z,99.90
2023-04-24T19:14:18.638Z,99.90
2023-04-24T19:16:47.259Z,99.90
2023-04-24T19:19:16.168Z,99.90
2023-04-24T19:21:45.814Z,99.90
2023-04-24T19:24:14.114Z,99.90
2023-04-24T19:26:42.506Z,99.90
2023-04-24T19:29:11.060Z,99.90
2023-04-24T19:31:41.259Z,99.90
2023-04-24T19:34:09.742Z,99.90
2023-04-24T19:36:38.369Z,99.90
2023-04-24T19:39:06.980Z,99.90
2023-04-24T19:41:37.044Z,99.90
2023-04-24T19:44:07.795Z,99.90
2023-04-24T19:46:36.357Z,99.90
2023-04-24T19:49:04.460Z,99.90
2023-04-24T19:51:34.446Z,99.90
2023-04-24T19:54:04.498Z,99.90
2023-04-24T19:56:32.749Z,99.90
2023-04-24T19:59:01.419Z,99.90
2023-04-24T20:01:29.904Z,99.90
2023-04-24T20:03:58.476Z,99.90
2023-04-24T20:06:26.786Z,99.90
2023-04-24T20:08:55.084Z,99.90
2023-04-24T20:11:23.803Z,99.90
2023-04-24T20:13:52.204Z,99.90
2023-04-24T20:16:20.131Z,99.90
2023-04-24T20:18:48.339Z,99.90
2023-04-24T20:21:16.424Z,99.90
2023-04-24T20:23:44.273Z,99.90
2023-04-24T20:26:15.007Z,99.90
2023-04-24T20:28:42.861Z,99.90
2023-04-24T20:31:11.256Z,99.90
2023-04-24T20:33:41.816Z,99.90
2023-04-24T20:36:09.646Z,99.90
2023-04-24T20:38:38.081Z,99.90
2023-04-24T20:41:05.745Z,99.90
2023-04-24T20:43:33.505Z,99.90
2023-04-24T20:46:01.455Z,99.90
2023-04-24T20:48:29.113Z,99.90
2023-04-24T20:50:57.045Z,99.90
2023-04-24T20:53:25.088Z,99.90
2023-04-24T20:55:52.684Z,99.90
2023-04-24T20:58:23.981Z,99.90
2023-04-24T21:00:51.902Z,99.90
2023-04-24T21:03:19.850Z,99.90
2023-04-24T21:05:47.513Z,99.90
2023-04-24T21:08:15.618Z,99.90
2023-04-24T21:10:43.418Z,99.90
2023-04-24T21:13:10.981Z,99.90
2023-04-24T21:15:38.624Z,99.90
2023-04-24T21:18:06.379Z,99.90
2023-04-24T21:20:34.152Z,99.90
2023-04-24T21:23:01.800Z,99.90
2023-04-24T21:25:30.173Z,99.90
2023-04-24T21:27:59.512Z,99.90
2023-04-24T21:30:27.413Z,99.90
2023-04-24T21:32:56.396Z,99.90
2023-04-24T21:35:24.075Z,99.90
2023-04-24T21:37:51.761Z,99.90
2023-04-24T21:40:19.537Z,99.90
2023-04-24T21:42:47.552Z,99.90
2023-04-24T21:45:15.621Z,99.90
2023-04-24T21:47:43.390Z,99.90
2023-04-24T21:50:11.377Z,99.90
2023-04-24T21:52:38.997Z,99.90
2023-04-24T21:55:07.858Z,99.90
2023-04-24T21:57:35.649Z,99.90
2023-04-24T22:00:03.687Z,99.90
2023-04-24T22:02:33.032Z,99.90
2023-04-24T22:05:03.410Z,99.90
2023-04-24T22:07:34.396Z,99.90
2023-04-24T22:10:02.584Z,99.90
2023-04-24T22:12:30.161Z,99.90
2023-04-24T22:14:58.080Z,99.90
2023-04-24T22:17:26.623Z,99.90
2023-04-24T22:19:54.187Z,99.90
2023-04-24T22:22:21.857Z,99.90
2023-04-24T22:24:49.513Z,99.90
2023-04-24T22:27:17.969Z,99.90
2023-04-24T22:29:45.608Z,99.90
2023-04-24T22:32:13.398Z,99.90
2023-04-24T22:34:41.083Z,99.90
2023-04-24T22:37:08.600Z,99.90
2023-04-24T22:39:36.154Z,99.90
2023-04-24T22:42:03.960Z,99.90
2023-04-24T22:44:31.581Z,99.90
2023-04-24T22:46:59.400Z,99.90
2023-04-24T22:49:27.587Z,99.90
2023-04-24T22:51:57.786Z,99.90
2023-04-24T22:54:25.431Z,99.90
2023-04-24T22:56:53.282Z,99.90
2023-04-24T22:59:20.911Z,99.90
2023-04-24T23:01:48.548Z,99.90
2023-04-24T23:04:16.279Z,99.90
2023-04-24T23:06:43.986Z,99.90
2023-04-24T23:09:12.570Z,99.90
2023-04-24T23:11:40.201Z,99.90
2023-04-24T23:14:08.580Z,99.90
2023-04-24T23:16:37.862Z,99.90
2023-04-24T23:19:05.849Z,99.90
2023-04-24T23:21:33.888Z,99.90
2023-04-24T23:24:01.837Z,99.90
2023-04-24T23:26:29.488Z,99.90
2023-04-24T23:28:57.136Z,99.90
2023-04-24T23:31:25.018Z,99.90
2023-04-24T23:33:52.595Z,99.90
2023-04-24T23:36:20.208Z,99.90
2023-04-24T23:38:50.615Z,99.90
2023-04-24T23:41:21.717Z,99.90
2023-04-24T23:43:49.556Z,99.90
2023-04-24T23:46:17.553Z,99.90
2023-04-24T23:48:45.217Z,99.90
2023-04-24T23:51:12.858Z,99.90
2023-04-24T23:53:40.781Z,99.90
2023-04-24T23:56:08.373Z,99.90
2023-04-24T23:58:37.219Z,99.90
